Time;durP1;ratioP1;P1;durP2;ratioP2;P2;SDS_P1;SDS_P2;PMS_P1;PMS_P2;Temp;Humidity;BMP_temperature;BMP_pressure;BME280_temperature;BME280_humidity;BME280_pressure;Samples;Min_cycle;Max_cycle;Signal;HPM_P1;HPM_P2
2023/06/17 00:00:25;;;;;;;19.08;11.40;;;16.20;99.90;;;;;;5069117;28;20036;-77
2023/06/17 00:02:51;;;;;;;18.13;11.70;;;16.20;99.90;;;;;;5071947;28;20036;-77
2023/06/17 00:05:17;;;;;;;21.52;12.35;;;16.30;99.90;;;;;;5066442;28;20052;-77
2023/06/17 00:07:44;;;;;;;22.27;11.88;;;16.20;99.90;;;;;;5074345;28;20057;-77
2023/06/17 00:10:10;;;;;;;19.15;10.63;;;16.20;99.90;;;;;;5068207;28;20217;-77
2023/06/17 00:12:37;;;;;;;20.85;12.10;;;16.20;99.90;;;;;;5069498;28;20032;-77
2023/06/17 00:15:04;;;;;;;20.15;12.07;;;16.20;99.90;;;;;;5069242;28;20091;-77
2023/06/17 00:17:30;;;;;;;21.52;12.52;;;16.20;99.90;;;;;;5076776;28;20036;-77
2023/06/17 00:20:05;;;;;;;21.55;13.40;;;16.20;99.90;;;;;;5064625;28;20045;-77
2023/06/17 00:22:34;;;;;;;19.23;12.32;;;16.20;99.90;;;;;;5078818;28;20094;-77
2023/06/17 00:25:00;;;;;;;18.90;11.70;;;16.20;99.90;;;;;;5067312;28;20057;-77
2023/06/17 00:27:25;;;;;;;18.48;12.38;;;16.20;99.90;;;;;;5077211;28;20043;-77
2023/06/17 00:29:52;;;;;;;21.70;13.27;;;16.20;99.90;;;;;;5051801;28;20063;-76
2023/06/17 00:32:18;;;;;;;20.73;12.90;;;16.20;99.90;;;;;;5055962;28;20036;-77
2023/06/17 00:34:44;;;;;;;20.13;13.35;;;16.20;99.90;;;;;;5063760;28;20166;-76
2023/06/17 00:37:10;;;;;;;20.88;13.73;;;16.20;99.90;;;;;;5053147;28;20053;-76
2023/06/17 00:39:35;;;;;;;20.40;12.52;;;16.20;99.90;;;;;;5075321;28;20042;-76
2023/06/17 00:42:02;;;;;;;22.58;13.63;;;16.10;99.90;;;;;;5065546;28;20061;-76
2023/06/17 00:44:27;;;;;;;23.73;13.88;;;16.20;99.90;;;;;;5067906;28;20036;-76
2023/06/17 00:46:54;;;;;;;22.52;12.95;;;16.10;99.90;;;;;;5067449;28;20120;-76
2023/06/17 00:49:32;;;;;;;23.88;13.80;;;16.20;99.90;;;;;;5078581;28;20104;-76
2023/06/17 00:52:00;;;;;;;23.25;14.43;;;16.20;99.90;;;;;;5068715;28;20048;-76
2023/06/17 00:54:27;;;;;;;20.67;13.68;;;16.10;99.90;;;;;;5060954;28;20056;-76
2023/06/17 00:56:54;;;;;;;18.88;12.93;;;16.20;99.90;;;;;;5074613;28;20033;-76
2023/06/17 00:59:19;;;;;;;21.98;13.27;;;16.20;99.90;;;;;;5062162;28;20043;-76
2023/06/17 01:01:45;;;;;;;21.02;13.30;;;16.20;99.90;;;;;;5070744;28;20263;-76
2023/06/17 01:04:11;;;;;;;17.80;12.75;;;16.20;99.90;;;;;;5064087;28;20049;-76
2023/06/17 01:06:50;;;;;;;19.77;13.02;;;16.20;99.90;;;;;;5069133;28;20095;-76
2023/06/17 01:09:23;;;;;;;20.55;12.80;;;16.20;99.90;;;;;;5074975;28;20142;-76
2023/06/17 01:11:53;;;;;;;21.90;12.52;;;16.20;99.90;;;;;;5079208;28;20039;-76
2023/06/17 01:14:21;;;;;;;19.75;12.50;;;15.80;99.90;;;;;;5077287;28;20048;-76
2023/06/17 01:16:50;;;;;;;21.15;12.70;;;16.20;99.90;;;;;;5063952;28;20178;-76
2023/06/17 01:19:24;;;;;;;20.92;13.07;;;16.20;99.90;;;;;;5070053;28;20049;-76
2023/06/17 01:21:51;;;;;;;19.35;12.70;;;16.20;99.90;;;;;;5073372;28;20063;-77
2023/06/17 01:24:28;;;;;;;19.20;12.32;;;16.20;99.90;;;;;;5080149;28;20039;-77
2023/06/17 01:26:59;;;;;;;19.88;12.43;;;16.10;99.90;;;;;;5052162;28;20118;-77
2023/06/17 01:29:29;;;;;;;23.10;13.55;;;16.20;99.90;;;;;;5053193;28;20053;-77
2023/06/17 01:31:57;;;;;;;20.73;12.80;;;16.10;99.90;;;;;;5069174;28;20049;-77
2023/06/17 01:34:33;;;;;;;21.15;13.15;;;16.00;99.90;;;;;;5082213;28;20052;-77
2023/06/17 01:37:07;;;;;;;19.25;12.90;;;16.00;99.90;;;;;;5074608;28;20041;-77
2023/06/17 01:39:36;;;;;;;20.45;12.45;;;16.00;99.90;;;;;;5079185;28;20056;-77
2023/06/17 01:42:04;;;;;;;18.63;13.27;;;16.00;99.90;;;;;;5061831;28;20052;-76
2023/06/17 01:44:32;;;;;;;24.35;12.73;;;15.90;99.90;;;;;;5068444;28;20040;-77
2023/06/17 01:46:58;;;;;;;24.80;12.38;;;15.90;99.90;;;;;;5063251;28;20049;-76
2023/06/17 01:49:23;;;;;;;24.10;13.40;;;15.90;99.90;;;;;;5073110;28;20048;-76
2023/06/17 01:51:49;;;;;;;19.58;12.40;;;15.90;99.90;;;;;;5066396;28;20274;-76
2023/06/17 01:54:15;;;;;;;18.30;12.20;;;15.90;99.90;;;;;;5068626;28;20239;-76
2023/06/17 01:56:41;;;;;;;20.30;11.10;;;16.00;99.90;;;;;;5052691;28;20032;-76
2023/06/17 01:59:07;;;;;;;20.60;12.05;;;16.00;99.90;;;;;;5077128;28;20189;-76
2023/06/17 02:01:33;;;;;;;18.33;11.65;;;15.90;99.90;;;;;;5074358;28;20091;-76
2023/06/17 02:03:59;;;;;;;22.08;11.75;;;15.90;99.90;;;;;;5072731;28;20043;-76
2023/06/17 02:06:24;;;;;;;20.90;11.25;;;15.90;99.90;;;;;;5080233;28;20287;-76
2023/06/17 02:08:50;;;;;;;22.48;12.35;;;15.90;99.90;;;;;;5079582;28;20055;-76
2023/06/17 02:11:16;;;;;;;19.52;11.10;;;15.90;99.90;;;;;;5068891;28;20282;-76
2023/06/17 02:13:42;;;;;;;22.23;12.18;;;15.80;99.90;;;;;;5073089;28;20298;-75
2023/06/17 02:16:07;;;;;;;19.88;12.32;;;15.80;99.90;;;;;;5074257;28;20064;-76
2023/06/17 02:18:33;;;;;;;18.25;10.80;;;15.80;99.90;;;;;;5042977;28;20305;-76
2023/06/17 02:21:00;;;;;;;20.58;12.23;;;15.80;99.90;;;;;;5071327;28;20091;-76
2023/06/17 02:23:27;;;;;;;20.02;12.73;;;15.80;99.90;;;;;;5080638;28;20056;-76
2023/06/17 02:25:54;;;;;;;20.48;11.77;;;15.70;99.90;;;;;;5074412;28;20063;-76
2023/06/17 02:28:20;;;;;;;20.23;11.98;;;15.70;99.90;;;;;;5078450;28;20052;-76
2023/06/17 02:30:46;;;;;;;22.55;12.20;;;15.70;99.90;;;;;;5075229;28;20044;-76
2023/06/17 02:33:12;;;;;;;22.77;12.65;;;15.70;99.90;;;;;;5073130;28;20032;-76
2023/06/17 02:35:38;;;;;;;20.00;12.63;;;15.70;99.90;;;;;;5070373;28;20052;-76
2023/06/17 02:38:04;;;;;;;20.58;12.77;;;15.80;99.90;;;;;;5054105;28;20111;-76
2023/06/17 02:40:30;;;;;;;19.60;12.18;;;15.60;99.90;;;;;;5068746;28;20214;-76
2023/06/17 02:42:56;;;;;;;21.50;12.55;;;15.70;99.90;;;;;;5055086;28;20096;-76
2023/06/17 02:45:21;;;;;;;21.45;13.13;;;15.70;99.90;;;;;;5072343;28;20056;-76
2023/06/17 02:47:47;;;;;;;19.83;12.65;;;15.70;99.90;;;;;;5079413;28;20043;-75
2023/06/17 02:50:13;;;;;;;21.73;12.45;;;15.70;99.90;;;;;;5068305;28;20061;-75
2023/06/17 02:52:38;;;;;;;21.63;13.02;;;15.70;99.90;;;;;;5079222;28;20082;-76
2023/06/17 02:55:05;;;;;;;20.67;12.23;;;15.70;99.90;;;;;;5080355;28;20037;-76
2023/06/17 02:57:31;;;;;;;23.42;12.75;;;15.70;99.90;;;;;;5070380;28;20044;-76
2023/06/17 02:59:57;;;;;;;21.55;12.30;;;15.70;99.90;;;;;;5066770;28;20044;-76
2023/06/17 03:02:23;;;;;;;19.83;12.25;;;15.70;99.90;;;;;;5068355;28;20052;-76
2023/06/17 03:04:53;;;;;;;19.13;13.27;;;15.60;99.90;;;;;;5078213;28;20031;-75
2023/06/17 03:07:19;;;;;;;19.05;12.25;;;15.60;99.90;;;;;;5062868;28;20043;-76
2023/06/17 03:09:45;;;;;;;20.17;12.40;;;15.50;99.90;;;;;;5070391;28;20112;-76
2023/06/17 03:12:11;;;;;;;20.08;12.70;;;15.50;99.90;;;;;;5059077;28;20274;-76
2023/06/17 03:14:37;;;;;;;19.63;12.55;;;15.50;99.90;;;;;;5077055;28;20040;-76
2023/06/17 03:17:04;;;;;;;18.77;12.65;;;15.60;99.90;;;;;;5076216;28;20041;-76
2023/06/17 03:19:29;;;;;;;18.80;12.77;;;15.50;99.90;;;;;;5081055;28;20132;-76
2023/06/17 03:21:55;;;;;;;19.77;12.73;;;15.50;99.90;;;;;;5063097;28;20278;-76
2023/06/17 03:24:21;;;;;;;18.40;11.98;;;15.50;99.90;;;;;;5059688;28;20278;-76
2023/06/17 03:26:47;;;;;;;20.23;13.82;;;15.50;99.90;;;;;;5063845;28;20048;-76
2023/06/17 03:29:13;;;;;;;21.98;12.60;;;15.50;99.90;;;;;;5074273;28;20085;-76
2023/06/17 03:31:38;;;;;;;27.33;14.02;;;15.50;99.90;;;;;;5078413;28;20036;-76
2023/06/17 03:34:04;;;;;;;20.38;12.73;;;15.50;99.90;;;;;;5075681;28;20080;-76
2023/06/17 03:36:30;;;;;;;21.20;14.55;;;15.50;99.90;;;;;;5079363;28;20047;-76
2023/06/17 03:38:56;;;;;;;20.90;13.05;;;15.50;99.90;;;;;;5069317;28;20036;-76
2023/06/17 03:41:23;;;;;;;22.83;15.27;;;15.50;99.90;;;;;;5076993;28;20036;-76
2023/06/17 03:43:49;;;;;;;25.83;16.42;;;15.50;99.90;;;;;;5069745;28;20365;-76
2023/06/17 03:46:15;;;;;;;21.27;15.10;;;15.40;99.90;;;;;;5076898;28;20053;-76
2023/06/17 03:48:41;;;;;;;21.30;15.10;;;15.40;99.90;;;;;;5063573;28;20103;-76
2023/06/17 03:51:07;;;;;;;22.38;15.05;;;15.40;99.90;;;;;;5074454;28;20041;-76
2023/06/17 03:53:32;;;;;;;22.75;15.13;;;15.50;99.90;;;;;;5069237;28;20052;-76
2023/06/17 03:55:58;;;;;;;22.45;15.45;;;15.40;99.90;;;;;;5071514;28;20046;-76
2023/06/17 03:58:24;;;;;;;21.75;16.10;;;15.50;99.90;;;;;;5077560;28;20036;-76
2023/06/17 04:00:51;;;;;;;23.95;15.25;;;15.50;99.90;;;;;;5075730;28;20114;-76
2023/06/17 04:03:18;;;;;;;24.15;16.10;;;15.40;99.90;;;;;;5054847;28;20044;-75
2023/06/17 04:05:44;;;;;;;23.05;15.70;;;15.40;99.90;;;;;;5074672;28;20102;-75
2023/06/17 04:08:10;;;;;;;26.15;16.63;;;15.40;99.90;;;;;;5076996;28;20059;-75
2023/06/17 04:10:36;;;;;;;28.27;17.63;;;15.40;99.90;;;;;;5076193;28;20032;-76
2023/06/17 04:13:02;;;;;;;24.95;16.83;;;15.40;99.90;;;;;;5076814;28;20045;-76
2023/06/17 04:15:28;;;;;;;26.67;17.08;;;15.40;99.90;;;;;;5050322;28;20059;-76
2023/06/17 04:17:54;;;;;;;24.00;17.15;;;15.40;99.90;;;;;;5067996;28;20210;-75
2023/06/17 04:20:25;;;;;;;24.77;16.90;;;15.40;99.90;;;;;;5076160;28;20037;-76
2023/06/17 04:22:51;;;;;;;25.05;16.33;;;15.50;99.90;;;;;;5047367;28;20032;-76
2023/06/17 04:25:20;;;;;;;21.88;15.55;;;15.50;99.90;;;;;;5072345;28;20177;-76
2023/06/17 04:27:48;;;;;;;25.98;17.00;;;15.50;99.90;;;;;;5079237;28;20115;-76
2023/06/17 04:30:15;;;;;;;23.38;15.88;;;15.50;99.90;;;;;;5076957;28;20260;-76
2023/06/17 04:32:42;;;;;;;23.50;16.55;;;15.60;99.90;;;;;;5081389;28;20134;-76
2023/06/17 04:35:09;;;;;;;22.52;15.68;;;15.50;99.90;;;;;;5072239;28;20032;-76
2023/06/17 04:37:36;;;;;;;23.63;15.23;;;15.50;99.90;;;;;;5064012;28;20329;-76
2023/06/17 04:40:06;;;;;;;23.23;15.35;;;15.50;99.90;;;;;;5071867;28;20039;-76
2023/06/17 04:42:33;;;;;;;22.05;14.35;;;15.50;99.90;;;;;;5077067;28;20365;-76
2023/06/17 04:45:00;;;;;;;20.20;14.32;;;15.50;99.90;;;;;;5068974;28;20069;-76
2023/06/17 04:47:25;;;;;;;21.40;14.05;;;15.50;99.90;;;;;;5067552;28;20120;-76
2023/06/17 04:49:51;;;;;;;23.40;14.23;;;15.60;99.90;;;;;;5066283;28;20040;-76
2023/06/17 04:52:24;;;;;;;23.13;14.93;;;15.60;99.90;;;;;;5069317;28;20037;-76
2023/06/17 04:54:50;;;;;;;20.65;13.98;;;15.50;99.90;;;;;;5063437;28;20150;-76
2023/06/17 04:57:17;;;;;;;21.70;13.73;;;15.60;99.90;;;;;;5079391;28;20112;-76
2023/06/17 04:59:43;;;;;;;20.20;13.88;;;15.60;99.90;;;;;;5077986;28;20043;-76
2023/06/17 05:02:10;;;;;;;21.08;14.23;;;15.60;99.90;;;;;;5078882;28;20083;-76
2023/06/17 05:04:35;;;;;;;22.52;13.88;;;15.60;99.90;;;;;;5081893;28;20051;-76
2023/06/17 05:07:01;;;;;;;20.13;13.57;;;15.60;99.90;;;;;;5069315;28;20028;-76
2023/06/17 05:09:27;;;;;;;22.20;13.45;;;15.60;99.90;;;;;;5068638;28;20068;-76
2023/06/17 05:11:53;;;;;;;20.40;13.32;;;15.70;99.90;;;;;;5063304;28;20037;-76
2023/06/17 05:14:18;;;;;;;20.67;13.38;;;15.70;99.90;;;;;;5063501;28;20270;-76
2023/06/17 05:16:44;;;;;;;21.10;13.73;;;15.70;99.90;;;;;;5067907;28;20065;-76
2023/06/17 05:19:10;;;;;;;20.55;13.95;;;15.80;99.90;;;;;;5072888;28;20341;-76
2023/06/17 05:21:36;;;;;;;21.10;13.52;;;15.80;99.90;;;;;;5079923;28;20231;-76
2023/06/17 05:24:02;;;;;;;22.50;14.85;;;15.80;99.90;;;;;;5080075;28;20399;-76
2023/06/17 05:26:27;;;;;;;22.48;14.60;;;15.80;99.90;;;;;;5080685;28;20036;-76
2023/06/17 05:28:53;;;;;;;21.48;14.75;;;15.80;99.90;;;;;;5059924;28;20278;-76
2023/06/17 05:31:19;;;;;;;25.75;15.80;;;15.80;99.90;;;;;;5055047;28;20029;-76
2023/06/17 05:33:45;;;;;;;24.45;15.35;;;15.80;99.90;;;;;;5072414;28;20297;-76
2023/06/17 05:36:11;;;;;;;23.13;15.13;;;15.80;99.90;;;;;;5050879;28;20278;-76
2023/06/17 05:38:37;;;;;;;23.42;15.68;;;15.80;99.90;;;;;;5073426;28;20147;-75
2023/06/17 05:41:02;;;;;;;25.40;16.83;;;15.80;99.90;;;;;;5072597;28;20040;-76
2023/06/17 05:43:28;;;;;;;25.98;16.98;;;15.80;99.90;;;;;;5080827;28;20097;-76
2023/06/17 05:45:54;;;;;;;24.85;16.33;;;15.80;99.90;;;;;;5043157;28;20218;-75
2023/06/17 05:48:20;;;;;;;26.45;15.75;;;15.80;99.90;;;;;;5069274;28;20116;-76
2023/06/17 05:50:46;;;;;;;27.05;16.52;;;15.80;99.90;;;;;;5062646;28;20210;-76
2023/06/17 05:53:11;;;;;;;24.52;17.40;;;15.90;99.90;;;;;;5070819;28;20044;-76
2023/06/17 05:55:37;;;;;;;22.75;15.43;;;15.90;99.90;;;;;;5050898;28;20041;-76
2023/06/17 05:58:03;;;;;;;24.55;15.23;;;16.00;99.90;;;;;;5073988;28;20119;-76
2023/06/17 06:00:29;;;;;;;20.15;13.27;;;16.00;99.90;;;;;;5073333;28;20066;-76
2023/06/17 06:02:55;;;;;;;19.02;12.77;;;16.10;99.90;;;;;;5054718;28;20248;-76
2023/06/17 06:05:20;;;;;;;18.52;13.13;;;16.10;99.90;;;;;;5048261;28;20032;-76
2023/06/17 06:07:46;;;;;;;18.52;12.70;;;16.10;99.90;;;;;;5073005;28;20043;-76
2023/06/17 06:10:12;;;;;;;21.40;13.20;;;16.20;99.90;;;;;;5076055;28;20035;-76
2023/06/17 06:12:39;;;;;;;20.25;12.50;;;16.20;99.90;;;;;;5068285;28;20032;-76
2023/06/17 06:15:06;;;;;;;20.20;13.48;;;16.20;99.90;;;;;;5070029;28;20044;-76
2023/06/17 06:17:32;;;;;;;19.33;12.23;;;16.20;99.90;;;;;;5047100;28;20232;-76
2023/06/17 06:20:00;;;;;;;20.80;12.02;;;16.20;99.90;;;;;;5076479;28;20039;-76
2023/06/17 06:22:26;;;;;;;18.45;10.90;;;16.20;99.90;;;;;;5074652;28;20044;-76
2023/06/17 06:24:51;;;;;;;19.90;10.48;;;16.30;99.90;;;;;;5078262;28;20040;-77
2023/06/17 06:27:17;;;;;;;17.25;10.20;;;16.30;99.90;;;;;;5082068;28;20175;-77
2023/06/17 06:29:43;;;;;;;17.48;11.20;;;16.40;99.90;;;;;;5076713;28;20033;-77
2023/06/17 06:32:09;;;;;;;20.40;11.75;;;16.40;99.90;;;;;;5078780;28;20067;-77
2023/06/17 06:34:34;;;;;;;18.48;11.00;;;16.50;99.90;;;;;;5056433;28;20086;-77
2023/06/17 06:37:00;;;;;;;19.10;11.20;;;16.60;99.90;;;;;;5075066;28;20095;-77
2023/06/17 06:39:26;;;;;;;22.00;11.82;;;16.60;99.90;;;;;;5061751;28;20318;-77
2023/06/17 06:41:53;;;;;;;18.08;11.13;;;16.70;99.90;;;;;;5075955;28;20051;-77
2023/06/17 06:44:19;;;;;;;18.42;11.50;;;16.70;99.90;;;;;;5063681;28;20098;-77
2023/06/17 06:46:45;;;;;;;19.90;11.18;;;16.70;99.90;;;;;;5074525;28;20044;-77
2023/06/17 06:49:11;;;;;;;18.45;10.32;;;16.80;99.90;;;;;;5075460;28;20048;-77
2023/06/17 06:51:37;;;;;;;17.55;10.57;;;16.90;99.90;;;;;;5076062;28;20130;-77
2023/06/17 06:54:03;;;;;;;16.63;10.20;;;17.00;99.90;;;;;;5072503;28;20119;-78
2023/06/17 06:56:29;;;;;;;18.52;10.57;;;17.00;99.90;;;;;;5063834;28;20079;-77
2023/06/17 06:58:58;;;;;;;19.02;9.98;;;17.10;99.90;;;;;;5068391;28;20052;-77
2023/06/17 07:01:26;;;;;;;16.90;10.18;;;17.20;99.90;;;;;;5068236;28;20102;-77
2023/06/17 07:03:52;;;;;;;17.88;11.13;;;17.20;99.90;;;;;;5066428;28;20044;-77
2023/06/17 07:06:18;;;;;;;24.10;11.98;;;17.30;99.90;;;;;;5080523;28;20043;-77
2023/06/17 07:08:44;;;;;;;17.63;11.05;;;17.40;99.90;;;;;;5073216;28;20262;-77
2023/06/17 07:11:10;;;;;;;17.52;11.20;;;17.50;99.90;;;;;;5072164;28;20036;-77
2023/06/17 07:13:36;;;;;;;19.17;11.57;;;17.60;99.90;;;;;;5071472;28;20083;-77
2023/06/17 07:16:02;;;;;;;21.95;11.77;;;17.60;99.90;;;;;;5072839;28;20040;-77
2023/06/17 07:18:28;;;;;;;20.02;11.70;;;17.70;99.90;;;;;;5080795;28;20185;-77
2023/06/17 07:20:53;;;;;;;22.55;12.27;;;17.70;99.90;;;;;;5081136;28;20040;-77
2023/06/17 07:23:19;;;;;;;19.98;11.70;;;17.70;99.90;;;;;;5050666;28;20035;-77
2023/06/17 07:25:45;;;;;;;19.02;11.13;;;17.80;99.90;;;;;;5035561;28;20085;-77
2023/06/17 07:28:12;;;;;;;19.17;11.43;;;17.80;99.90;;;;;;5081097;28;20266;-77
2023/06/17 07:30:38;;;;;;;18.50;10.82;;;17.90;99.90;;;;;;5079431;28;20052;-77
2023/06/17 07:33:05;;;;;;;18.77;11.60;;;18.00;99.90;;;;;;5078523;28;20251;-77
2023/06/17 07:35:31;;;;;;;20.60;12.35;;;18.00;99.90;;;;;;5079798;28;20175;-77
2023/06/17 07:37:56;;;;;;;18.92;11.00;;;18.30;99.90;;;;;;5059685;28;20033;-77
2023/06/17 07:40:22;;;;;;;20.50;10.88;;;18.40;99.90;;;;;;5064783;28;20349;-77
2023/06/17 07:42:48;;;;;;;17.13;10.88;;;18.40;99.90;;;;;;5064968;28;20111;-77
2023/06/17 07:45:14;;;;;;;20.20;10.93;;;18.40;99.90;;;;;;5077550;28;20036;-77
2023/06/17 07:47:39;;;;;;;18.13;10.23;;;18.50;99.90;;;;;;5062882;28;20028;-77
2023/06/17 07:50:08;;;;;;;16.27;10.57;;;18.60;99.90;;;;;;5075062;28;20047;-77
2023/06/17 07:52:35;;;;;;;18.98;11.00;;;18.70;99.90;;;;;;5079141;28;20036;-77
2023/06/17 07:55:01;;;;;;;20.60;10.50;;;18.70;99.90;;;;;;5049378;28;20044;-77
2023/06/17 07:57:27;;;;;;;18.15;10.65;;;18.80;99.90;;;;;;5062958;28;21133;-77
2023/06/17 07:59:53;;;;;;;18.73;11.15;;;19.00;99.90;;;;;;5063943;28;20036;-77
2023/06/17 08:02:18;;;;;;;18.38;10.07;;;19.10;99.90;;;;;;5069313;28;20043;-77
2023/06/17 08:04:45;;;;;;;15.45;9.88;;;19.20;99.90;;;;;;5071655;28;20109;-77
2023/06/17 08:07:11;;;;;;;14.35;9.52;;;19.40;99.90;;;;;;5076771;28;20138;-77
2023/06/17 08:09:37;;;;;;;15.48;9.40;;;19.50;99.90;;;;;;5074578;28;20328;-77
2023/06/17 08:12:03;;;;;;;16.08;9.98;;;19.60;99.90;;;;;;5076204;28;20167;-77
2023/06/17 08:14:28;;;;;;;16.23;9.63;;;19.70;99.90;;;;;;5079240;28;20047;-77
2023/06/17 08:16:55;;;;;;;16.98;10.00;;;19.80;99.90;;;;;;5075576;28;20053;-77
2023/06/17 08:19:21;;;;;;;16.27;8.98;;;19.90;99.90;;;;;;5077328;28;20044;-77
2023/06/17 08:21:46;;;;;;;17.00;9.35;;;20.00;99.90;;;;;;5054004;28;20075;-76
2023/06/17 08:24:21;;;;;;;16.23;8.98;;;20.10;99.90;;;;;;5075864;28;20040;-78
2023/06/17 08:26:48;;;;;;;18.90;10.32;;;20.30;99.90;;;;;;5069282;28;20041;-78
2023/06/17 08:29:15;;;;;;;16.13;9.90;;;20.50;99.90;;;;;;5067974;28;20056;-78
2023/06/17 08:31:47;;;;;;;16.30;9.68;;;20.50;99.90;;;;;;5048017;28;20094;-77
2023/06/17 08:34:13;;;;;;;18.17;10.13;;;20.60;99.90;;;;;;5092121;28;20048;-77
2023/06/17 08:36:41;;;;;;;15.27;9.32;;;20.60;99.90;;;;;;5080028;28;20283;-77
2023/06/17 08:39:08;;;;;;;17.05;9.35;;;20.70;99.90;;;;;;5074618;28;20205;-77
2023/06/17 08:41:40;;;;;;;18.00;9.52;;;20.90;99.90;;;;;;5084410;28;20100;-77
2023/06/17 08:44:10;;;;;;;14.63;8.40;;;20.80;99.90;;;;;;5083030;28;20073;-78
2023/06/17 08:46:36;;;;;;;17.42;10.02;;;20.80;99.90;;;;;;5083470;28;20042;-77
2023/06/17 08:49:03;;;;;;;17.40;10.20;;;21.00;99.90;;;;;;5079246;28;20059;-77
2023/06/17 08:51:29;;;;;;;16.17;9.02;;;21.00;99.90;;;;;;5080758;28;20043;-77
2023/06/17 08:53:56;;;;;;;16.90;9.63;;;21.00;99.90;;;;;;5083827;28;20250;-77
2023/06/17 08:56:23;;;;;;;15.85;9.75;;;20.80;99.90;;;;;;5068459;28;20099;-77
2023/06/17 08:58:54;;;;;;;15.93;9.43;;;20.70;99.90;;;;;;5079178;28;20060;-78
2023/06/17 09:01:22;;;;;;;15.43;8.85;;;20.80;99.90;;;;;;5082843;28;20103;-78
2023/06/17 09:03:51;;;;;;;13.95;8.50;;;20.90;99.90;;;;;;5084765;28;20040;-78
2023/06/17 09:06:20;;;;;;;14.98;8.65;;;21.10;99.90;;;;;;5083505;28;20048;-77
2023/06/17 09:08:51;;;;;;;14.32;8.05;;;21.20;99.90;;;;;;5084590;28;20043;-77
2023/06/17 09:11:20;;;;;;;15.68;8.57;;;21.30;99.90;;;;;;5081069;28;20074;-77
2023/06/17 09:13:50;;;;;;;13.95;7.72;;;21.30;99.90;;;;;;5080338;28;20165;-77
2023/06/17 09:16:34;;;;;;;13.52;7.47;;;21.30;99.90;;;;;;5064626;28;20087;-78
2023/06/17 09:19:05;;;;;;;17.15;8.57;;;21.50;99.90;;;;;;5083463;28;20036;-77
2023/06/17 09:21:32;;;;;;;15.00;8.85;;;21.60;99.90;;;;;;5073634;28;20044;-78
2023/06/17 09:24:03;;;;;;;13.95;8.07;;;21.70;99.90;;;;;;5062994;28;20040;-78
2023/06/17 09:26:34;;;;;;;17.33;8.55;;;21.80;99.90;;;;;;5062621;28;20041;-78
2023/06/17 09:29:05;;;;;;;15.93;8.23;;;21.90;99.90;;;;;;5063279;28;20561;-78
2023/06/17 09:31:33;;;;;;;16.63;8.68;;;21.90;99.90;;;;;;5069032;28;20152;-78
2023/06/17 09:34:03;;;;;;;15.25;8.10;;;22.00;99.90;;;;;;5079833;28;20040;-77
2023/06/17 09:36:29;;;;;;;14.02;7.93;;;22.00;99.90;;;;;;5064999;28;20048;-77
2023/06/17 09:38:55;;;;;;;14.30;7.90;;;22.00;99.90;;;;;;5063064;28;20267;-77
2023/06/17 09:41:23;;;;;;;15.38;8.40;;;22.10;99.90;;;;;;5067031;28;20323;-77
2023/06/17 09:43:52;;;;;;;15.93;8.18;;;22.20;99.90;;;;;;5080461;28;20040;-77
2023/06/17 09:46:29;;;;;;;16.10;7.85;;;22.30;99.90;;;;;;5074525;28;20149;-77
2023/06/17 09:48:58;;;;;;;15.13;8.43;;;22.30;99.90;;;;;;5052835;28;20183;-77
2023/06/17 09:51:25;;;;;;;13.63;7.80;;;22.40;99.90;;;;;;5069625;28;20054;-78
2023/06/17 09:53:52;;;;;;;13.00;7.22;;;22.40;99.90;;;;;;5082130;28;20088;-78
2023/06/17 09:56:19;;;;;;;13.88;6.85;;;22.50;99.90;;;;;;5083748;28;20059;-78
2023/06/17 09:58:47;;;;;;;13.75;7.57;;;22.60;99.90;;;;;;5072250;28;20061;-78
2023/06/17 10:01:13;;;;;;;15.57;7.97;;;22.70;99.90;;;;;;5063623;28;20040;-77
2023/06/17 10:03:39;;;;;;;12.90;6.95;;;23.20;99.90;;;;;;5073122;28;20155;-77
2023/06/17 10:06:16;;;;;;;13.73;7.22;;;22.70;99.90;;;;;;5066423;28;20056;-78
2023/06/17 10:08:48;;;;;;;12.70;6.85;;;22.70;99.90;;;;;;5062552;28;20067;-78
2023/06/17 10:11:18;;;;;;;13.68;7.05;;;22.70;99.90;;;;;;5062729;28;20045;-78
2023/06/17 10:13:49;;;;;;;13.50;7.85;;;22.80;99.90;;;;;;5070844;28;20104;-78
2023/06/17 10:16:18;;;;;;;15.50;7.90;;;23.00;99.90;;;;;;5066013;28;20063;-78
2023/06/17 10:18:48;;;;;;;15.38;8.10;;;23.00;99.90;;;;;;5082092;28;20341;-78
2023/06/17 10:21:15;;;;;;;13.38;7.30;;;23.10;99.90;;;;;;5065138;28;20048;-78
2023/06/17 10:23:42;;;;;;;14.18;7.57;;;23.10;99.90;;;;;;5051897;28;20066;-78
2023/06/17 10:26:10;;;;;;;11.75;7.15;;;23.10;99.90;;;;;;5069219;28;20335;-78
2023/06/17 10:28:58;;;;;;;14.13;7.38;;;23.10;99.90;;;;;;5069963;28;20044;-78
2023/06/17 10:31:29;;;;;;;15.27;7.43;;;23.10;99.90;;;;;;5073541;28;20222;-78
2023/06/17 10:33:57;;;;;;;14.95;7.30;;;23.30;99.90;;;;;;5075297;28;20212;-77
2023/06/17 10:36:27;;;;;;;14.75;7.05;;;22.00;99.90;;;;;;5074915;28;20032;-77
2023/06/17 10:39:05;;;;;;;13.23;7.22;;;23.50;99.90;;;;;;5073938;28;20067;-78
2023/06/17 10:41:40;;;;;;;16.30;7.60;;;24.40;99.90;;;;;;5071875;28;20083;-78
2023/06/17 10:44:45;;;;;;;13.95;7.20;;;23.90;99.90;;;;;;5053719;28;20048;-78
2023/06/17 10:47:21;;;;;;;16.10;8.02;;;23.90;99.90;;;;;;5001111;28;20046;-78
2023/06/17 10:49:49;;;;;;;12.38;6.85;;;23.80;99.90;;;;;;4998789;28;20157;-78
2023/06/17 10:52:16;;;;;;;15.82;7.40;;;24.00;99.90;;;;;;5034940;28;20061;-78
2023/06/17 10:54:50;;;;;;;15.20;7.13;;;23.90;99.90;;;;;;5074127;28;20037;-80
2023/06/17 10:57:27;;;;;;;13.80;7.28;;;23.90;99.90;;;;;;5067393;28;20301;-79
2023/06/17 10:59:53;;;;;;;13.90;7.40;;;24.00;99.90;;;;;;5075774;28;20039;-79
2023/06/17 11:02:21;;;;;;;13.35;7.38;;;24.00;99.90;;;;;;5068939;28;20254;-80
2023/06/17 11:04:48;;;;;;;13.60;7.50;;;24.00;99.90;;;;;;5073855;28;20523;-80
2023/06/17 11:07:14;;;;;;;14.35;7.32;;;24.10;99.90;;;;;;5074780;28;20198;-80
2023/06/17 11:09:40;;;;;;;13.65;7.35;;;24.10;99.90;;;;;;5066175;28;20063;-80
2023/06/17 11:12:07;;;;;;;14.50;8.20;;;24.20;99.90;;;;;;5061991;28;20029;-80
2023/06/17 11:14:34;;;;;;;14.93;7.93;;;24.20;99.90;;;;;;5078574;28;20266;-80
2023/06/17 11:16:59;;;;;;;14.43;7.55;;;24.20;99.90;;;;;;5079276;28;20298;-80
2023/06/17 11:19:25;;;;;;;14.95;7.38;;;24.20;99.90;;;;;;5071515;28;20128;-80
2023/06/17 11:22:06;;;;;;;16.30;7.53;;;24.20;99.90;;;;;;5072491;28;20056;-80
2023/06/17 11:24:33;;;;;;;15.25;6.72;;;24.40;99.90;;;;;;5092364;28;20215;-80
2023/06/17 11:27:00;;;;;;;15.98;8.23;;;24.50;99.90;;;;;;5062281;28;20041;-80
2023/06/17 11:29:26;;;;;;;14.32;7.22;;;24.50;99.90;;;;;;5066466;28;20040;-80
2023/06/17 11:31:53;;;;;;;14.10;7.25;;;24.70;99.90;;;;;;5080896;28;20055;-80
2023/06/17 11:34:22;;;;;;;13.98;6.90;;;24.60;99.90;;;;;;5076534;28;20300;-80
2023/06/17 11:36:52;;;;;;;12.32;6.50;;;24.70;99.90;;;;;;5065433;28;20051;-80
2023/06/17 11:39:29;;;;;;;13.90;6.43;;;24.70;99.90;;;;;;5068993;28;20060;-79
2023/06/17 11:42:03;;;;;;;12.45;6.32;;;24.80;99.90;;;;;;5068666;28;20035;-82
2023/06/17 11:44:32;;;;;;;16.48;7.22;;;24.90;99.90;;;;;;5060485;28;20045;-79
2023/06/17 11:47:08;;;;;;;14.38;7.07;;;24.70;99.90;;;;;;5070012;28;20358;-79
2023/06/17 11:49:34;;;;;;;13.43;7.05;;;24.80;99.90;;;;;;5074119;28;20033;-79
2023/06/17 11:52:08;;;;;;;13.60;7.18;;;24.90;99.90;;;;;;5069291;28;20240;-79
2023/06/17 11:54:34;;;;;;;14.80;7.22;;;25.10;99.90;;;;;;5075569;28;20041;-79
2023/06/17 11:57:02;;;;;;;13.07;6.47;;;25.00;99.90;;;;;;5067003;28;20048;-79
2023/06/17 11:59:32;;;;;;;12.70;6.65;;;24.90;99.90;;;;;;5074368;28;20151;-79
2023/06/17 12:01:58;;;;;;;12.88;6.50;;;25.00;99.90;;;;;;5065174;28;20048;-79
2023/06/17 12:04:23;;;;;;;13.45;7.07;;;25.10;99.90;;;;;;5070863;28;20062;-79
2023/06/17 12:06:49;;;;;;;13.00;6.65;;;25.10;99.90;;;;;;5069596;28;20035;-78
2023/06/17 12:09:15;;;;;;;13.60;6.65;;;25.20;99.90;;;;;;5072752;28;20029;-79
2023/06/17 12:11:43;;;;;;;14.98;6.80;;;25.20;99.90;;;;;;5076843;28;20048;-76
2023/06/17 12:14:12;;;;;;;13.77;6.68;;;25.20;99.90;;;;;;5079214;28;20178;-77
2023/06/17 12:16:43;;;;;;;12.43;6.60;;;25.00;99.90;;;;;;5069657;28;20036;-77
2023/06/17 12:19:21;;;;;;;13.35;6.82;;;25.20;99.90;;;;;;5074057;28;20270;-77
2023/06/17 12:21:48;;;;;;;14.15;6.43;;;;;;;;;;5069470;28;20322;-79
2023/06/17 12:24:17;;;;;;;11.45;6.28;;;24.90;99.90;;;;;;5064815;28;20125;-75
2023/06/17 12:26:44;;;;;;;13.88;6.20;;;25.30;99.90;;;;;;5069303;28;20048;-76
2023/06/17 12:29:10;;;;;;;11.45;5.90;;;25.20;99.90;;;;;;5070772;28;20040;-76
2023/06/17 12:31:36;;;;;;;14.45;6.95;;;25.40;99.90;;;;;;5075851;28;20856;-77